sensor_id;sensor_type;location;lat;lon;timestamp;P1;durP1;ratioP1;P2;durP2;ratioP2
76053;SDS011;64752;48.870;9.082;2023-03-14T00:02:19;0.82;;;0.47;;
76053;SDS011;64752;48.870;9.082;2023-03-14T00:04:44;3.20;;;0.57;;
76053;SDS011;64752;48.870;9.082;2023-03-14T00:07:10;2.25;;;0.80;;
76053;SDS011;64752;48.870;9.082;2023-03-14T00:09:36;0.82;;;0.50;;
76053;SDS011;64752;48.870;9.082;2023-03-14T00:12:01;0.47;;;0.47;;
76053;SDS011;64752;48.870;9.082;2023-03-14T00:14:28;0.70;;;0.50;;
76053;SDS011;64752;48.870;9.082;2023-03-14T00:16:53;0.60;;;0.60;;
76053;SDS011;64752;48.870;9.082;2023-03-14T00:19:18;0.67;;;0.50;;
76053;SDS011;64752;48.870;9.082;2023-03-14T00:21:43;4.55;;;0.80;;
76053;SDS011;64752;48.870;9.082;2023-03-14T00:24:08;0.65;;;0.57;;
76053;SDS011;64752;48.870;9.082;2023-03-14T00:26:34;0.85;;;0.57;;
76053;SDS011;64752;48.870;9.082;2023-03-14T00:28:59;0.55;;;0.55;;
76053;SDS011;64752;48.870;9.082;2023-03-14T00:31:24;2.25;;;0.77;;
76053;SDS011;64752;48.870;9.082;2023-03-14T00:33:51;2.05;;;0.60;;
76053;SDS011;64752;48.870;9.082;2023-03-14T00:36:17;0.57;;;0.57;;
76053;SDS011;64752;48.870;9.082;2023-03-14T00:38:43;1.98;;;0.73;;
76053;SDS011;64752;48.870;9.082;2023-03-14T00:41:09;0.73;;;0.47;;
76053;SDS011;64752;48.870;9.082;2023-03-14T00:43:35;1.77;;;0.85;;
76053;SDS011;64752;48.870;9.082;2023-03-14T00:46:00;2.70;;;0.57;;
76053;SDS011;64752;48.870;9.082;2023-03-14T00:48:26;1.48;;;0.70;;
76053;SDS011;64752;48.870;9.082;2023-03-14T00:50:51;0.77;;;0.70;;
76053;SDS011;64752;48.870;9.082;2023-03-14T00:53:16;2.27;;;0.47;;
76053;SDS011;64752;48.870;9.082;2023-03-14T00:55:42;0.60;;;0.60;;
76053;SDS011;64752;48.870;9.082;2023-03-14T00:58:08;1.55;;;0.57;;
76053;SDS011;64752;48.870;9.082;2023-03-14T01:00:34;2.92;;;0.80;;
76053;SDS011;64752;48.870;9.082;2023-03-14T01:02:59;2.15;;;0.90;;
76053;SDS011;64752;48.870;9.082;2023-03-14T01:05:24;1.13;;;0.60;;
76053;SDS011;64752;48.870;9.082;2023-03-14T01:07:50;0.80;;;0.50;;
76053;SDS011;64752;48.870;9.082;2023-03-14T01:10:15;0.80;;;0.77;;
76053;SDS011;64752;48.870;9.082;2023-03-14T01:12:40;0.70;;;0.70;;
76053;SDS011;64752;48.870;9.082;2023-03-14T01:15:06;2.00;;;0.57;;
76053;SDS011;64752;48.870;9.082;2023-03-14T01:17:31;0.57;;;0.40;;
76053;SDS011;64752;48.870;9.082;2023-03-14T01:19:56;1.25;;;0.65;;
76053;SDS011;64752;48.870;9.082;2023-03-14T01:22:22;1.13;;;0.52;;
76053;SDS011;64752;48.870;9.082;2023-03-14T01:24:47;1.55;;;0.52;;
76053;SDS011;64752;48.870;9.082;2023-03-14T01:27:12;1.48;;;0.63;;
76053;SDS011;64752;48.870;9.082;2023-03-14T01:29:37;0.68;;;0.47;;
76053;SDS011;64752;48.870;9.082;2023-03-14T01:32:03;0.73;;;0.53;;
76053;SDS011;64752;48.870;9.082;2023-03-14T01:34:28;1.15;;;0.70;;
76053;SDS011;64752;48.870;9.082;2023-03-14T01:36:53;3.53;;;0.63;;
76053;SDS011;64752;48.870;9.082;2023-03-14T01:39:18;1.33;;;0.70;;
76053;SDS011;64752;48.870;9.082;2023-03-14T01:41:43;0.82;;;0.60;;
76053;SDS011;64752;48.870;9.082;2023-03-14T01:44:10;2.35;;;0.50;;
76053;SDS011;64752;48.870;9.082;2023-03-14T01:56:39;1.02;;;0.60;;
76053;SDS011;64752;48.870;9.082;2023-03-14T01:59:06;1.05;;;0.68;;
76053;SDS011;64752;48.870;9.082;2023-03-14T02:01:32;1.90;;;0.60;;
76053;SDS011;64752;48.870;9.082;2023-03-14T02:03:59;2.63;;;0.80;;
76053;SDS011;64752;48.870;9.082;2023-03-14T02:06:27;0.73;;;0.50;;
76053;SDS011;64752;48.870;9.082;2023-03-14T02:08:54;1.63;;;0.50;;
76053;SDS011;64752;48.870;9.082;2023-03-14T02:11:19;1.30;;;0.60;;
76053;SDS011;64752;48.870;9.082;2023-03-14T02:13:45;0.98;;;0.50;;
76053;SDS011;64752;48.870;9.082;2023-03-14T02:16:10;0.90;;;0.55;;
76053;SDS011;64752;48.870;9.082;2023-03-14T02:18:36;0.43;;;0.32;;
76053;SDS011;64752;48.870;9.082;2023-03-14T02:26:28;2.30;;;0.60;;
76053;SDS011;64752;48.870;9.082;2023-03-14T02:28:55;1.70;;;0.50;;
76053;SDS011;64752;48.870;9.082;2023-03-14T02:31:20;1.10;;;0.50;;
76053;SDS011;64752;48.870;9.082;2023-03-14T02:33:47;0.70;;;0.40;;
76053;SDS011;64752;48.870;9.082;2023-03-14T02:36:13;1.52;;;0.60;;
76053;SDS011;64752;48.870;9.082;2023-03-14T02:38:41;0.38;;;0.38;;
76053;SDS011;64752;48.870;9.082;2023-03-14T02:41:09;0.43;;;0.40;;
76053;SDS011;64752;48.870;9.082;2023-03-14T02:43:34;0.57;;;0.40;;
76053;SDS011;64752;48.870;9.082;2023-03-14T02:46:00;1.73;;;0.53;;
76053;SDS011;64752;48.870;9.082;2023-03-14T02:48:26;0.82;;;0.40;;
76053;SDS011;64752;48.870;9.082;2023-03-14T02:50:56;0.60;;;0.40;;
76053;SDS011;64752;48.870;9.082;2023-03-14T02:53:24;1.38;;;0.45;;
76053;SDS011;64752;48.870;9.082;2023-03-14T02:55:49;3.35;;;0.60;;
76053;SDS011;64752;48.870;9.082;2023-03-14T02:58:15;0.77;;;0.50;;
76053;SDS011;64752;48.870;9.082;2023-03-14T03:00:40;2.20;;;0.63;;
76053;SDS011;64752;48.870;9.082;2023-03-14T03:03:05;3.80;;;0.68;;
76053;SDS011;64752;48.870;9.082;2023-03-14T03:05:31;0.60;;;0.40;;
76053;SDS011;64752;48.870;9.082;2023-03-14T03:07:56;4.30;;;0.93;;
76053;SDS011;64752;48.870;9.082;2023-03-14T03:10:22;1.60;;;0.60;;
76053;SDS011;64752;48.870;9.082;2023-03-14T03:12:47;2.25;;;0.70;;
76053;SDS011;64752;48.870;9.082;2023-03-14T03:15:12;3.83;;;0.80;;
76053;SDS011;64752;48.870;9.082;2023-03-14T03:17:37;3.00;;;0.83;;
76053;SDS011;64752;48.870;9.082;2023-03-14T03:20:03;1.70;;;0.70;;
76053;SDS011;64752;48.870;9.082;2023-03-14T03:24:55;1.93;;;0.80;;
76053;SDS011;64752;48.870;9.082;2023-03-14T03:27:20;2.70;;;0.82;;
76053;SDS011;64752;48.870;9.082;2023-03-14T03:29:45;2.67;;;0.70;;
76053;SDS011;64752;48.870;9.082;2023-03-14T03:32:10;0.75;;;0.40;;
76053;SDS011;64752;48.870;9.082;2023-03-14T03:34:35;1.15;;;0.50;;
76053;SDS011;64752;48.870;9.082;2023-03-14T03:37:01;3.00;;;0.57;;
76053;SDS011;64752;48.870;9.082;2023-03-14T03:39:26;1.93;;;0.67;;
76053;SDS011;64752;48.870;9.082;2023-03-14T03:41:51;1.73;;;0.65;;
76053;SDS011;64752;48.870;9.082;2023-03-14T03:44:16;3.40;;;0.90;;
76053;SDS011;64752;48.870;9.082;2023-03-14T03:46:41;2.55;;;0.60;;
76053;SDS011;64752;48.870;9.082;2023-03-14T03:49:08;3.63;;;0.90;;
76053;SDS011;64752;48.870;9.082;2023-03-14T03:51:33;2.38;;;0.73;;
76053;SDS011;64752;48.870;9.082;2023-03-14T03:53:58;2.87;;;0.73;;
76053;SDS011;64752;48.870;9.082;2023-03-14T03:56:23;3.30;;;1.07;;
76053;SDS011;64752;48.870;9.082;2023-03-14T03:58:49;2.95;;;0.95;;
76053;SDS011;64752;48.870;9.082;2023-03-14T04:01:14;2.40;;;0.70;;
76053;SDS011;64752;48.870;9.082;2023-03-14T04:03:39;1.17;;;0.47;;
76053;SDS011;64752;48.870;9.082;2023-03-14T04:06:06;4.95;;;0.65;;
76053;SDS011;64752;48.870;9.082;2023-03-14T04:08:32;1.67;;;0.63;;
76053;SDS011;64752;48.870;9.082;2023-03-14T04:10:57;4.73;;;0.87;;
76053;SDS011;64752;48.870;9.082;2023-03-14T04:13:23;4.88;;;1.23;;
76053;SDS011;64752;48.870;9.082;2023-03-14T04:15:48;6.05;;;1.08;;
76053;SDS011;64752;48.870;9.082;2023-03-14T04:18:13;4.73;;;0.90;;
76053;SDS011;64752;48.870;9.082;2023-03-14T04:20:38;2.60;;;0.60;;
76053;SDS011;64752;48.870;9.082;2023-03-14T04:23:04;1.35;;;0.68;;
76053;SDS011;64752;48.870;9.082;2023-03-14T04:25:29;5.40;;;2.00;;
76053;SDS011;64752;48.870;9.082;2023-03-14T04:27:54;2.67;;;1.00;;
76053;SDS011;64752;48.870;9.082;2023-03-14T04:30:19;3.17;;;0.60;;
76053;SDS011;64752;48.870;9.082;2023-03-14T04:32:44;3.67;;;1.17;;
76053;SDS011;64752;48.870;9.082;2023-03-14T04:35:09;3.70;;;0.83;;
76053;SDS011;64752;48.870;9.082;2023-03-14T04:37:35;2.53;;;0.82;;
76053;SDS011;64752;48.870;9.082;2023-03-14T04:40:00;6.55;;;1.15;;
76053;SDS011;64752;48.870;9.082;2023-03-14T04:42:25;5.13;;;0.95;;
76053;SDS011;64752;48.870;9.082;2023-03-14T04:44:51;4.75;;;1.08;;
76053;SDS011;64752;48.870;9.082;2023-03-14T04:47:16;7.53;;;0.90;;
76053;SDS011;64752;48.870;9.082;2023-03-14T04:49:41;4.43;;;1.23;;
76053;SDS011;64752;48.870;9.082;2023-03-14T04:52:06;6.97;;;1.42;;
76053;SDS011;64752;48.870;9.082;2023-03-14T04:54:31;4.35;;;0.80;;
76053;SDS011;64752;48.870;9.082;2023-03-14T04:56:57;2.58;;;0.90;;
76053;SDS011;64752;48.870;9.082;2023-03-14T04:59:22;4.57;;;1.08;;
76053;SDS011;64752;48.870;9.082;2023-03-14T05:01:47;5.13;;;1.33;;
76053;SDS011;64752;48.870;9.082;2023-03-14T05:04:14;7.25;;;1.20;;
76053;SDS011;64752;48.870;9.082;2023-03-14T05:06:39;2.95;;;1.00;;
76053;SDS011;64752;48.870;9.082;2023-03-14T05:09:05;3.83;;;1.02;;
76053;SDS011;64752;48.870;9.082;2023-03-14T05:11:30;2.65;;;1.08;;
76053;SDS011;64752;48.870;9.082;2023-03-14T05:13:55;7.00;;;1.25;;
76053;SDS011;64752;48.870;9.082;2023-03-14T05:16:20;1.70;;;0.57;;
76053;SDS011;64752;48.870;9.082;2023-03-14T05:18:46;4.65;;;1.00;;
76053;SDS011;64752;48.870;9.082;2023-03-14T05:21:11;6.80;;;1.10;;
76053;SDS011;64752;48.870;9.082;2023-03-14T05:23:36;8.70;;;1.25;;
76053;SDS011;64752;48.870;9.082;2023-03-14T05:26:01;7.07;;;1.33;;
76053;SDS011;64752;48.870;9.082;2023-03-14T05:28:26;4.25;;;1.20;;
76053;SDS011;64752;48.870;9.082;2023-03-14T05:30:52;6.50;;;1.25;;
76053;SDS011;64752;48.870;9.082;2023-03-14T05:33:17;10.40;;;1.30;;
76053;SDS011;64752;48.870;9.082;2023-03-14T05:35:42;5.78;;;1.15;;
76053;SDS011;64752;48.870;9.082;2023-03-14T05:38:08;6.05;;;1.10;;
76053;SDS011;64752;48.870;9.082;2023-03-14T05:40:33;1.70;;;0.73;;
76053;SDS011;64752;48.870;9.082;2023-03-14T05:42:59;3.67;;;1.00;;
76053;SDS011;64752;48.870;9.082;2023-03-14T05:45:24;4.05;;;1.10;;
76053;SDS011;64752;48.870;9.082;2023-03-14T05:47:49;6.33;;;1.30;;
76053;SDS011;64752;48.870;9.082;2023-03-14T05:50:14;7.85;;;1.10;;
76053;SDS011;64752;48.870;9.082;2023-03-14T05:52:39;3.08;;;1.35;;
76053;SDS011;64752;48.870;9.082;2023-03-14T05:55:05;2.55;;;0.77;;
76053;SDS011;64752;48.870;9.082;2023-03-14T05:57:30;3.33;;;0.85;;
76053;SDS011;64752;48.870;9.082;2023-03-14T05:59:55;2.03;;;0.70;;
76053;SDS011;64752;48.870;9.082;2023-03-14T06:02:20;1.92;;;0.77;;
76053;SDS011;64752;48.870;9.082;2023-03-14T06:04:46;5.07;;;1.00;;
76053;SDS011;64752;48.870;9.082;2023-03-14T06:07:11;3.13;;;0.90;;
76053;SDS011;64752;48.870;9.082;2023-03-14T06:09:36;4.88;;;0.90;;
76053;SDS011;64752;48.870;9.082;2023-03-14T06:12:01;3.33;;;1.13;;
76053;SDS011;64752;48.870;9.082;2023-03-14T06:14:29;3.92;;;0.70;;
76053;SDS011;64752;48.870;9.082;2023-03-14T06:16:54;3.85;;;0.93;;
76053;SDS011;64752;48.870;9.082;2023-03-14T06:19:20;4.32;;;0.63;;
76053;SDS011;64752;48.870;9.082;2023-03-14T06:21:45;3.80;;;1.42;;
76053;SDS011;64752;48.870;9.082;2023-03-14T06:24:10;4.10;;;0.93;;
76053;SDS011;64752;48.870;9.082;2023-03-14T06:26:35;3.33;;;1.02;;
76053;SDS011;64752;48.870;9.082;2023-03-14T06:29:01;6.40;;;1.33;;
76053;SDS011;64752;48.870;9.082;2023-03-14T06:31:28;3.13;;;0.88;;
76053;SDS011;64752;48.870;9.082;2023-03-14T06:33:54;2.88;;;0.80;;
76053;SDS011;64752;48.870;9.082;2023-03-14T06:36:19;4.47;;;0.75;;
76053;SDS011;64752;48.870;9.082;2023-03-14T06:38:44;9.27;;;1.05;;
76053;SDS011;64752;48.870;9.082;2023-03-14T06:41:09;4.90;;;0.90;;
76053;SDS011;64752;48.870;9.082;2023-03-14T06:43:35;4.45;;;0.98;;
76053;SDS011;64752;48.870;9.082;2023-03-14T06:46:00;1.02;;;0.40;;
76053;SDS011;64752;48.870;9.082;2023-03-14T06:48:25;2.22;;;0.90;;
76053;SDS011;64752;48.870;9.082;2023-03-14T06:50:50;3.65;;;0.90;;
76053;SDS011;64752;48.870;9.082;2023-03-14T06:53:16;5.40;;;0.95;;
76053;SDS011;64752;48.870;9.082;2023-03-14T06:55:41;3.37;;;1.07;;
76053;SDS011;64752;48.870;9.082;2023-03-14T06:58:07;2.90;;;0.57;;
76053;SDS011;64752;48.870;9.082;2023-03-14T07:00:33;3.75;;;0.90;;
76053;SDS011;64752;48.870;9.082;2023-03-14T07:02:59;7.27;;;0.80;;
76053;SDS011;64752;48.870;9.082;2023-03-14T07:05:24;3.13;;;0.93;;
76053;SDS011;64752;48.870;9.082;2023-03-14T07:07:49;4.90;;;0.95;;
76053;SDS011;64752;48.870;9.082;2023-03-14T07:10:14;5.70;;;0.90;;
76053;SDS011;64752;48.870;9.082;2023-03-14T07:12:39;1.38;;;0.50;;
76053;SDS011;64752;48.870;9.082;2023-03-14T07:15:05;3.07;;;0.83;;
76053;SDS011;64752;48.870;9.082;2023-03-14T07:17:30;3.17;;;0.90;;
76053;SDS011;64752;48.870;9.082;2023-03-14T07:19:55;3.07;;;0.70;;
76053;SDS011;64752;48.870;9.082;2023-03-14T07:22:21;4.50;;;1.13;;
76053;SDS011;64752;48.870;9.082;2023-03-14T07:24:46;2.93;;;0.80;;
76053;SDS011;64752;48.870;9.082;2023-03-14T07:27:11;2.67;;;0.80;;
76053;SDS011;64752;48.870;9.082;2023-03-14T07:29:36;3.83;;;0.80;;
76053;SDS011;64752;48.870;9.082;2023-03-14T07:32:01;3.80;;;0.80;;
76053;SDS011;64752;48.870;9.082;2023-03-14T07:34:27;0.87;;;0.50;;
76053;SDS011;64752;48.870;9.082;2023-03-14T07:36:52;2.47;;;0.70;;
76053;SDS011;64752;48.870;9.082;2023-03-14T07:39:17;2.27;;;0.73;;
76053;SDS011;64752;48.870;9.082;2023-03-14T07:41:42;1.43;;;0.50;;
76053;SDS011;64752;48.870;9.082;2023-03-14T07:44:08;3.10;;;0.70;;
76053;SDS011;64752;48.870;9.082;2023-03-14T07:46:33;1.07;;;0.50;;
76053;SDS011;64752;48.870;9.082;2023-03-14T07:48:58;0.87;;;0.70;;
76053;SDS011;64752;48.870;9.082;2023-03-14T07:51:23;1.80;;;0.50;;
76053;SDS011;64752;48.870;9.082;2023-03-14T07:53:48;2.00;;;0.70;;
76053;SDS011;64752;48.870;9.082;2023-03-14T07:56:14;0.63;;;0.37;;
76053;SDS011;64752;48.870;9.082;2023-03-14T07:58:39;1.20;;;0.50;;
76053;SDS011;64752;48.870;9.082;2023-03-14T08:01:04;1.50;;;0.27;;
76053;SDS011;64752;48.870;9.082;2023-03-14T08:03:29;0.30;;;0.27;;
76053;SDS011;64752;48.870;9.082;2023-03-14T08:05:55;4.13;;;0.57;;
76053;SDS011;64752;48.870;9.082;2023-03-14T08:08:20;1.27;;;0.47;;
76053;SDS011;64752;48.870;9.082;2023-03-14T08:10:45;0.90;;;0.30;;
76053;SDS011;64752;48.870;9.082;2023-03-14T08:13:11;1.97;;;0.53;;
76053;SDS011;64752;48.870;9.082;2023-03-14T08:15:36;1.00;;;0.30;;
76053;SDS011;64752;48.870;9.082;2023-03-14T08:18:02;0.80;;;0.30;;
76053;SDS011;64752;48.870;9.082;2023-03-14T08:20:28;1.13;;;0.30;;
76053;SDS011;64752;48.870;9.082;2023-03-14T08:22:57;1.23;;;0.32;;
76053;SDS011;64752;48.870;9.082;2023-03-14T08:25:23;0.30;;;0.30;;
76053;SDS011;64752;48.870;9.082;2023-03-14T08:27:49;0.60;;;0.30;;
76053;SDS011;64752;48.870;9.082;2023-03-14T08:30:15;0.83;;;0.30;;
76053;SDS011;64752;48.870;9.082;2023-03-14T08:32:40;1.33;;;0.60;;
76053;SDS011;64752;48.870;9.082;2023-03-14T08:35:05;0.37;;;0.30;;
76053;SDS011;64752;48.870;9.082;2023-03-14T08:37:31;0.90;;;0.30;;
76053;SDS011;64752;48.870;9.082;2023-03-14T08:39:57;0.50;;;0.20;;
76053;SDS011;64752;48.870;9.082;2023-03-14T08:42:22;1.07;;;0.30;;
76053;SDS011;64752;48.870;9.082;2023-03-14T08:44:47;2.03;;;0.70;;
76053;SDS011;64752;48.870;9.082;2023-03-14T08:47:12;1.67;;;0.50;;
76053;SDS011;64752;48.870;9.082;2023-03-14T08:49:38;1.77;;;0.40;;
76053;SDS011;64752;48.870;9.082;2023-03-14T08:52:04;1.17;;;0.33;;
76053;SDS011;64752;48.870;9.082;2023-03-14T08:54:29;2.83;;;0.50;;
76053;SDS011;64752;48.870;9.082;2023-03-14T08:56:54;1.17;;;0.40;;
76053;SDS011;64752;48.870;9.082;2023-03-14T08:59:20;0.77;;;0.40;;
76053;SDS011;64752;48.870;9.082;2023-03-14T09:01:45;2.53;;;0.50;;
76053;SDS011;64752;48.870;9.082;2023-03-14T09:04:10;0.70;;;0.50;;
76053;SDS011;64752;48.870;9.082;2023-03-14T09:06:35;1.57;;;0.60;;
76053;SDS011;64752;48.870;9.082;2023-03-14T09:09:01;2.00;;;0.50;;
76053;SDS011;64752;48.870;9.082;2023-03-14T09:11:26;2.57;;;0.30;;
76053;SDS011;64752;48.870;9.082;2023-03-14T09:13:51;2.03;;;0.53;;
76053;SDS011;64752;48.870;9.082;2023-03-14T09:16:16;1.93;;;0.33;;
76053;SDS011;64752;48.870;9.082;2023-03-14T09:18:42;5.28;;;0.52;;
76053;SDS011;64752;48.870;9.082;2023-03-14T09:21:07;0.40;;;0.38;;
76053;SDS011;64752;48.870;9.082;2023-03-14T09:23:32;1.85;;;0.20;;
76053;SDS011;64752;48.870;9.082;2023-03-14T09:25:58;3.93;;;0.77;;
76053;SDS011;64752;48.870;9.082;2023-03-14T09:28:23;1.70;;;0.43;;
76053;SDS011;64752;48.870;9.082;2023-03-14T09:30:49;2.33;;;0.83;;
76053;SDS011;64752;48.870;9.082;2023-03-14T09:33:15;1.63;;;0.80;;
76053;SDS011;64752;48.870;9.082;2023-03-14T09:35:40;1.00;;;0.25;;
76053;SDS011;64752;48.870;9.082;2023-03-14T09:38:05;1.52;;;0.60;;
76053;SDS011;64752;48.870;9.082;2023-03-14T09:40:31;0.43;;;0.30;;
76053;SDS011;64752;48.870;9.082;2023-03-14T09:42:58;0.88;;;0.40;;
76053;SDS011;64752;48.870;9.082;2023-03-14T09:45:41;0.65;;;0.40;;
76053;SDS011;64752;48.870;9.082;2023-03-14T09:48:11;0.60;;;0.25;;
76053;SDS011;64752;48.870;9.082;2023-03-14T09:50:40;2.50;;;0.32;;
76053;SDS011;64752;48.870;9.082;2023-03-14T09:53:08;0.30;;;0.20;;
76053;SDS011;64752;48.870;9.082;2023-03-14T09:55:35;1.02;;;0.20;;
76053;SDS011;64752;48.870;9.082;2023-03-14T09:58:02;0.22;;;0.20;;
76053;SDS011;64752;48.870;9.082;2023-03-14T10:00:29;0.80;;;0.22;;
76053;SDS011;64752;48.870;9.082;2023-03-14T10:05:22;1.40;;;0.45;;
76053;SDS011;64752;48.870;9.082;2023-03-14T10:07:47;2.22;;;0.40;;
76053;SDS011;64752;48.870;9.082;2023-03-14T10:10:14;0.23;;;0.20;;
76053;SDS011;64752;48.870;9.082;2023-03-14T10:12:40;0.93;;;0.30;;
76053;SDS011;64752;48.870;9.082;2023-03-14T10:15:08;0.17;;;0.17;;
76053;SDS011;64752;48.870;9.082;2023-03-14T10:17:47;0.75;;;0.30;;
76053;SDS011;64752;48.870;9.082;2023-03-14T10:22:57;0.30;;;0.20;;
76053;SDS011;64752;48.870;9.082;2023-03-14T10:25:29;0.10;;;0.10;;
76053;SDS011;64752;48.870;9.082;2023-03-14T10:27:55;0.35;;;0.28;;
76053;SDS011;64752;48.870;9.082;2023-03-14T10:30:27;1.20;;;0.20;;
76053;SDS011;64752;48.870;9.082;2023-03-14T10:32:54;0.20;;;0.15;;
76053;SDS011;64752;48.870;9.082;2023-03-14T10:35:20;0.57;;;0.23;;
76053;SDS011;64752;48.870;9.082;2023-03-14T10:40:12;0.28;;;0.17;;
76053;SDS011;64752;48.870;9.082;2023-03-14T10:42:41;0.50;;;0.20;;
76053;SDS011;64752;48.870;9.082;2023-03-14T10:45:24;0.10;;;0.10;;
76053;SDS011;64752;48.870;9.082;2023-03-14T10:47:52;0.68;;;0.20;;
76053;SDS011;64752;48.870;9.082;2023-03-14T10:50:25;3.43;;;0.30;;
76053;SDS011;64752;48.870;9.082;2023-03-14T10:52:51;0.17;;;0.17;;
76053;SDS011;64752;48.870;9.082;2023-03-14T10:55:17;0.68;;;0.20;;
76053;SDS011;64752;48.870;9.082;2023-03-14T10:57:42;1.10;;;0.40;;
76053;SDS011;64752;48.870;9.082;2023-03-14T11:00:14;0.35;;;0.25;;
76053;SDS011;64752;48.870;9.082;2023-03-14T11:03:03;0.17;;;0.17;;
76053;SDS011;64752;48.870;9.082;2023-03-14T11:08:09;0.38;;;0.30;;
76053;SDS011;64752;48.870;9.082;2023-03-14T11:10:39;3.55;;;0.45;;
76053;SDS011;64752;48.870;9.082;2023-03-14T11:23:16;0.45;;;0.30;;
76053;SDS011;64752;48.870;9.082;2023-03-14T11:30:59;1.05;;;0.40;;
76053;SDS011;64752;48.870;9.082;2023-03-14T11:35:58;0.82;;;0.28;;
76053;SDS011;64752;48.870;9.082;2023-03-14T11:38:42;0.55;;;0.22;;
76053;SDS011;64752;48.870;9.082;2023-03-14T11:41:15;0.45;;;0.15;;
76053;SDS011;64752;48.870;9.082;2023-03-14T11:43:42;0.45;;;0.22;;
76053;SDS011;64752;48.870;9.082;2023-03-14T11:46:20;1.52;;;0.30;;
76053;SDS011;64752;48.870;9.082;2023-03-14T11:51:17;1.33;;;0.30;;
76053;SDS011;64752;48.870;9.082;2023-03-14T11:53:50;0.73;;;0.30;;
76053;SDS011;64752;48.870;9.082;2023-03-14T11:56:30;1.05;;;0.28;;
76053;SDS011;64752;48.870;9.082;2023-03-14T11:59:01;1.15;;;0.35;;
76053;SDS011;64752;48.870;9.082;2023-03-14T12:01:30;0.50;;;0.43;;
76053;SDS011;64752;48.870;9.082;2023-03-14T12:04:01;0.70;;;0.30;;
76053;SDS011;64752;48.870;9.082;2023-03-14T12:06:39;0.35;;;0.20;;
76053;SDS011;64752;48.870;9.082;2023-03-14T12:09:06;0.75;;;0.43;;
76053;SDS011;64752;48.870;9.082;2023-03-14T12:11:46;0.20;;;0.20;;
76053;SDS011;64752;48.870;9.082;2023-03-14T12:14:22;0.30;;;0.30;;
76053;SDS011;64752;48.870;9.082;2023-03-14T12:16:49;0.90;;;0.32;;
76053;SDS011;64752;48.870;9.082;2023-03-14T12:21:53;0.10;;;0.10;;
76053;SDS011;64752;48.870;9.082;2023-03-14T12:24:21;0.30;;;0.30;;
76053;SDS011;64752;48.870;9.082;2023-03-14T12:26:57;1.10;;;0.60;;
76053;SDS011;64752;48.870;9.082;2023-03-14T12:29:23;1.00;;;0.90;;
76053;SDS011;64752;48.870;9.082;2023-03-14T12:32:05;1.13;;;1.00;;
76053;SDS011;64752;48.870;9.082;2023-03-14T12:34:32;2.83;;;1.05;;
76053;SDS011;64752;48.870;9.082;2023-03-14T12:36:59;1.38;;;0.70;;
76053;SDS011;64752;48.870;9.082;2023-03-14T12:46:57;2.30;;;1.20;;
76053;SDS011;64752;48.870;9.082;2023-03-14T12:49:29;1.52;;;1.00;;
76053;SDS011;64752;48.870;9.082;2023-03-14T12:52:01;1.83;;;0.70;;
76053;SDS011;64752;48.870;9.082;2023-03-14T13:04:35;1.52;;;0.52;;
76053;SDS011;64752;48.870;9.082;2023-03-14T13:07:02;1.85;;;0.80;;
76053;SDS011;64752;48.870;9.082;2023-03-14T13:12:11;2.28;;;0.50;;
76053;SDS011;64752;48.870;9.082;2023-03-14T13:14:43;1.35;;;0.70;;
76053;SDS011;64752;48.870;9.082;2023-03-14T13:17:10;0.70;;;0.60;;
76053;SDS011;64752;48.870;9.082;2023-03-14T13:19:35;1.67;;;0.60;;
76053;SDS011;64752;48.870;9.082;2023-03-14T13:22:05;2.10;;;0.88;;
76053;SDS011;64752;48.870;9.082;2023-03-14T13:24:32;1.75;;;0.60;;
76053;SDS011;64752;48.870;9.082;2023-03-14T13:26:58;1.42;;;0.60;;
76053;SDS011;64752;48.870;9.082;2023-03-14T13:29:27;3.13;;;0.70;;
76053;SDS011;64752;48.870;9.082;2023-03-14T13:31:56;3.55;;;0.73;;
76053;SDS011;64752;48.870;9.082;2023-03-14T13:34:24;3.83;;;0.70;;
76053;SDS011;64752;48.870;9.082;2023-03-14T13:36:52;0.98;;;0.52;;
76053;SDS011;64752;48.870;9.082;2023-03-14T13:39:18;1.50;;;0.55;;
76053;SDS011;64752;48.870;9.082;2023-03-14T13:41:43;3.00;;;0.67;;
76053;SDS011;64752;48.870;9.082;2023-03-14T13:44:12;1.67;;;0.60;;
76053;SDS011;64752;48.870;9.082;2023-03-14T13:46:39;4.00;;;1.15;;
76053;SDS011;64752;48.870;9.082;2023-03-14T13:49:05;1.80;;;0.80;;
76053;SDS011;64752;48.870;9.082;2023-03-14T13:51:31;1.35;;;0.63;;
76053;SDS011;64752;48.870;9.082;2023-03-14T13:54:00;0.63;;;0.40;;
76053;SDS011;64752;48.870;9.082;2023-03-14T13:56:26;1.33;;;0.50;;
76053;SDS011;64752;48.870;9.082;2023-03-14T13:58:52;1.40;;;0.70;;
76053;SDS011;64752;48.870;9.082;2023-03-14T14:03:44;1.08;;;0.45;;
76053;SDS011;64752;48.870;9.082;2023-03-14T14:06:44;2.22;;;0.88;;
76053;SDS011;64752;48.870;9.082;2023-03-14T14:09:04;2.03;;;0.80;;
76053;SDS011;64752;48.870;9.082;2023-03-14T14:11:36;2.00;;;0.40;;
76053;SDS011;64752;48.870;9.082;2023-03-14T14:14:03;1.27;;;0.50;;
76053;SDS011;64752;48.870;9.082;2023-03-14T14:16:30;2.88;;;0.90;;
76053;SDS011;64752;48.870;9.082;2023-03-14T14:18:55;1.77;;;0.63;;
76053;SDS011;64752;48.870;9.082;2023-03-14T14:21:21;5.30;;;1.10;;
76053;SDS011;64752;48.870;9.082;2023-03-14T14:23:47;2.47;;;1.00;;
76053;SDS011;64752;48.870;9.082;2023-03-14T14:26:17;5.25;;;0.95;;
76053;SDS011;64752;48.870;9.082;2023-03-14T14:28:43;2.88;;;0.80;;
76053;SDS011;64752;48.870;9.082;2023-03-14T14:33:44;5.32;;;1.05;;
76053;SDS011;64752;48.870;9.082;2023-03-14T14:36:52;2.55;;;1.00;;
76053;SDS011;64752;48.870;9.082;2023-03-14T14:41:26;3.78;;;1.08;;
76053;SDS011;64752;48.870;9.082;2023-03-14T14:43:51;1.02;;;0.70;;
76053;SDS011;64752;48.870;9.082;2023-03-14T14:46:18;3.60;;;0.85;;
76053;SDS011;64752;48.870;9.082;2023-03-14T14:48:44;4.13;;;0.77;;
76053;SDS011;64752;48.870;9.082;2023-03-14T14:51:21;3.50;;;0.75;;
76053;SDS011;64752;48.870;9.082;2023-03-14T14:53:47;5.70;;;0.95;;
76053;SDS011;64752;48.870;9.082;2023-03-14T14:56:19;4.57;;;1.15;;
76053;SDS011;64752;48.870;9.082;2023-03-14T14:58:47;4.75;;;1.15;;
76053;SDS011;64752;48.870;9.082;2023-03-14T15:01:17;3.63;;;0.93;;
76053;SDS011;64752;48.870;9.082;2023-03-14T15:03:43;3.83;;;1.25;;
76053;SDS011;64752;48.870;9.082;2023-03-14T15:06:10;7.80;;;1.35;;
76053;SDS011;64752;48.870;9.082;2023-03-14T15:11:01;5.40;;;1.23;;
76053;SDS011;64752;48.870;9.082;2023-03-14T15:13:26;6.53;;;1.20;;
76053;SDS011;64752;48.870;9.082;2023-03-14T15:15:51;4.20;;;1.52;;
76053;SDS011;64752;48.870;9.082;2023-03-14T15:18:24;4.88;;;1.00;;
76053;SDS011;64752;48.870;9.082;2023-03-14T15:20:50;4.00;;;1.02;;
76053;SDS011;64752;48.870;9.082;2023-03-14T15:23:16;2.85;;;1.00;;
76053;SDS011;64752;48.870;9.082;2023-03-14T15:25:42;4.55;;;1.33;;
76053;SDS011;64752;48.870;9.082;2023-03-14T15:28:16;6.72;;;1.30;;
76053;SDS011;64752;48.870;9.082;2023-03-14T15:30:42;4.40;;;1.33;;
76053;SDS011;64752;48.870;9.082;2023-03-14T15:33:07;4.53;;;1.48;;
76053;SDS011;64752;48.870;9.082;2023-03-14T15:35:34;6.07;;;1.05;;
76053;SDS011;64752;48.870;9.082;2023-03-14T15:37:59;5.90;;;1.35;;
76053;SDS011;64752;48.870;9.082;2023-03-14T15:40:24;3.78;;;1.40;;
76053;SDS011;64752;48.870;9.082;2023-03-14T15:42:50;7.60;;;1.15;;
76053;SDS011;64752;48.870;9.082;2023-03-14T15:45:15;3.15;;;0.95;;
76053;SDS011;64752;48.870;9.082;2023-03-14T15:47:40;5.47;;;1.23;;
76053;SDS011;64752;48.870;9.082;2023-03-14T15:50:05;4.07;;;1.40;;
76053;SDS011;64752;48.870;9.082;2023-03-14T15:52:34;3.70;;;1.17;;
76053;SDS011;64752;48.870;9.082;2023-03-14T15:54:59;7.53;;;1.52;;
76053;SDS011;64752;48.870;9.082;2023-03-14T15:57:25;4.93;;;1.40;;
76053;SDS011;64752;48.870;9.082;2023-03-14T15:59:50;5.00;;;1.27;;
76053;SDS011;64752;48.870;9.082;2023-03-14T16:02:15;2.43;;;1.10;;
76053;SDS011;64752;48.870;9.082;2023-03-14T16:04:40;3.27;;;1.40;;
76053;SDS011;64752;48.870;9.082;2023-03-14T16:07:05;4.97;;;1.30;;